createdAt,value
2022-10-19T00:02:00.817Z,4.20
2022-10-19T00:04:30.899Z,4.03
2022-10-19T00:07:05.774Z,3.65
2022-10-19T00:09:34.383Z,4.10
2022-10-19T00:12:03.660Z,4.93
2022-10-19T00:14:32.978Z,3.95
2022-10-19T00:17:10.739Z,4.10
2022-10-19T00:19:40.036Z,4.13
2022-10-19T00:22:13.042Z,4.00
2022-10-19T00:24:46.106Z,4.10
2022-10-19T00:27:14.498Z,4.53
2022-10-19T00:29:43.109Z,3.90
2022-10-19T00:32:12.386Z,4.50
2022-10-19T00:34:40.794Z,4.35
2022-10-19T00:37:11.568Z,5.60
2022-10-19T00:39:40.288Z,4.38
2022-10-19T00:42:11.868Z,4.63
2022-10-19T00:45:03.690Z,5.10
2022-10-19T00:47:33.871Z,4.10
2022-10-19T00:50:02.424Z,4.38
2022-10-19T00:52:32.621Z,4.45
2022-10-19T00:55:02.549Z,5.47
2022-10-19T00:57:32.963Z,4.35
2022-10-19T01:00:02.629Z,5.63
2022-10-19T01:02:31.026Z,4.28
2022-10-19T01:05:00.462Z,4.93
2022-10-19T01:07:29.422Z,5.03
2022-10-19T01:10:01.856Z,6.25
2022-10-19T01:12:59.183Z,5.97
2022-10-19T01:15:40.056Z,5.28
2022-10-19T01:18:22.638Z,6.15
2022-10-19T01:21:27.363Z,5.40
2022-10-19T01:24:30.640Z,5.05
2022-10-19T01:27:45.833Z,5.13
2022-10-19T01:30:24.156Z,4.90
2022-10-19T01:33:04.888Z,4.80
2022-10-19T01:35:40.548Z,4.90
2022-10-19T01:38:23.553Z,5.18
2022-10-19T01:40:59.274Z,3.85
2022-10-19T01:43:40.116Z,3.63
2022-10-19T01:46:15.333Z,4.05
2022-10-19T01:48:52.814Z,4.18
2022-10-19T01:51:26.442Z,4.90
2022-10-19T01:53:59.001Z,4.60
2022-10-19T01:56:29.571Z,5.03
2022-10-19T01:59:02.286Z,4.47
2022-10-19T02:01:35.303Z,4.28
2022-10-19T02:04:04.692Z,4.63
2022-10-19T02:06:33.034Z,4.43
2022-10-19T02:09:01.344Z,4.03
2022-10-19T02:11:31.430Z,4.03
2022-10-19T02:14:07.088Z,4.38
2022-10-19T02:16:43.475Z,3.70
2022-10-19T02:19:17.113Z,3.58
2022-10-19T02:21:46.800Z,3.90
2022-10-19T02:24:15.026Z,4.07
2022-10-19T02:26:43.532Z,3.95
2022-10-19T02:29:13.568Z,4.00
2022-10-19T02:31:43.644Z,3.88
2022-10-19T02:34:14.576Z,3.97
2022-10-19T02:36:43.072Z,4.63
2022-10-19T02:39:11.375Z,3.85
2022-10-19T02:41:46.305Z,3.88
2022-10-19T02:44:24.850Z,3.92
2022-10-19T02:47:02.307Z,4.32
2022-10-19T02:49:31.944Z,4.30
2022-10-19T02:52:03.393Z,3.60
2022-10-19T02:54:31.661Z,3.50
2022-10-19T02:56:59.947Z,3.97
2022-10-19T02:59:28.756Z,4.05
2022-10-19T03:01:58.353Z,3.88
2022-10-19T03:04:26.596Z,5.10
2022-10-19T03:06:54.839Z,4.43
2022-10-19T03:09:23.089Z,3.72
2022-10-19T03:11:51.481Z,5.57
2022-10-19T03:14:19.779Z,6.03
2022-10-19T03:16:47.971Z,5.15
2022-10-19T03:19:17.582Z,4.93
2022-10-19T03:21:45.915Z,4.97
2022-10-19T03:24:14.507Z,6.53
2022-10-19T03:26:42.761Z,7.47
2022-10-19T03:29:11.182Z,6.20
2022-10-19T03:31:41.716Z,7.43
2022-10-19T03:34:10.279Z,6.85
2022-10-19T03:36:45.710Z,6.43
2022-10-19T03:39:16.702Z,7.70
2022-10-19T03:41:45.231Z,6.30
2022-10-19T03:44:13.812Z,9.27
2022-10-19T03:46:42.371Z,5.32
2022-10-19T03:49:11.157Z,6.45
2022-10-19T03:51:40.834Z,6.63
2022-10-19T03:54:15.606Z,7.35
2022-10-19T03:56:44.268Z,9.57
2022-10-19T03:59:17.632Z,6.85
2022-10-19T04:01:47.371Z,6.32
2022-10-19T04:04:18.560Z,6.60
2022-10-19T04:06:50.920Z,5.57
2022-10-19T04:09:21.748Z,6.95
2022-10-19T04:11:51.543Z,7.05
2022-10-19T04:14:32.445Z,7.30
2022-10-19T04:17:02.402Z,7.25
2022-10-19T04:19:31.028Z,6.63
2022-10-19T04:22:00.734Z,6.78
2022-10-19T04:24:30.418Z,7.18
2022-10-19T04:27:04.812Z,7.10
2022-10-19T04:29:33.245Z,7.25
2022-10-19T04:32:01.541Z,8.50
2022-10-19T04:34:29.800Z,7.35
2022-10-19T04:37:03.358Z,7.38
2022-10-19T04:39:32.067Z,6.40
2022-10-19T04:42:00.346Z,7.03
2022-10-19T04:44:54.680Z,7.20
2022-10-19T04:47:23.058Z,6.47
2022-10-19T04:49:57.231Z,6.03
2022-10-19T04:52:36.916Z,5.70
2022-10-19T04:55:06.250Z,6.03
2022-10-19T04:57:35.105Z,5.53
2022-10-19T05:00:07.040Z,6.95
2022-10-19T05:02:36.825Z,5.65
2022-10-19T05:05:10.952Z,5.55
2022-10-19T05:07:53.864Z,7.20
2022-10-19T05:10:22.647Z,6.05
2022-10-19T05:12:56.043Z,8.63
2022-10-19T05:15:25.460Z,7.85
2022-10-19T05:17:59.688Z,7.53
2022-10-19T05:20:28.373Z,6.20
2022-10-19T05:22:58.005Z,9.60
2022-10-19T05:25:34.275Z,6.82
2022-10-19T05:28:03.964Z,7.75
2022-10-19T05:30:32.553Z,7.05
2022-10-19T05:33:01.256Z,7.63
2022-10-19T05:35:29.516Z,7.30
2022-10-19T05:37:59.064Z,7.38
2022-10-19T05:40:28.665Z,7.13
2022-10-19T05:42:56.876Z,6.70
2022-10-19T05:45:25.129Z,9.18
2022-10-19T05:47:53.368Z,7.93
2022-10-19T05:50:21.629Z,7.95
2022-10-19T05:52:49.869Z,7.78
2022-10-19T05:55:19.519Z,8.18
2022-10-19T05:57:47.835Z,7.35
2022-10-19T06:00:16.760Z,7.57
2022-10-19T06:02:45.154Z,6.68
2022-10-19T06:05:13.332Z,9.05
2022-10-19T06:07:41.507Z,7.38
2022-10-19T06:10:10.825Z,7.15
2022-10-19T06:12:40.588Z,6.50
2022-10-19T06:15:10.070Z,6.88
2022-10-19T06:17:38.818Z,7.38
2022-10-19T06:20:09.136Z,6.97
2022-10-19T06:22:37.355Z,7.57
2022-10-19T06:25:06.687Z,7.25
2022-10-19T06:27:35.190Z,6.70
2022-10-19T06:30:06.376Z,6.63
2022-10-19T06:32:34.613Z,7.80
2022-10-19T06:35:03.839Z,7.70
2022-10-19T06:37:32.265Z,8.00
2022-10-19T06:40:04.737Z,6.85
2022-10-19T06:42:35.138Z,6.13
2022-10-19T06:45:05.268Z,6.38
2022-10-19T06:47:34.419Z,6.70
2022-10-19T06:50:08.665Z,6.85
2022-10-19T06:52:37.459Z,7.35
2022-10-19T06:55:07.465Z,6.15
2022-10-19T06:57:37.078Z,8.00
2022-10-19T07:00:12.291Z,5.43
2022-10-19T07:02:40.539Z,6.70
2022-10-19T07:05:10.411Z,7.75
2022-10-19T07:07:38.774Z,9.18
2022-10-19T07:10:08.188Z,12.25
2022-10-19T07:12:38.128Z,6.18
2022-10-19T07:15:09.460Z,7.72
2022-10-19T07:17:38.057Z,7.80
2022-10-19T07:20:07.826Z,6.78
2022-10-19T07:22:36.436Z,7.00
2022-10-19T07:25:05.265Z,6.90
2022-10-19T07:27:37.549Z,7.80
2022-10-19T07:30:07.184Z,6.03
2022-10-19T07:32:36.716Z,6.65
2022-10-19T07:35:05.891Z,5.80
2022-10-19T07:37:35.173Z,7.57
2022-10-19T07:40:03.533Z,8.90
2022-10-19T07:42:31.846Z,11.02
2022-10-19T07:45:00.594Z,10.50
2022-10-19T07:47:28.850Z,13.15
2022-10-19T07:50:03.014Z,13.02
2022-10-19T07:52:33.137Z,13.73
2022-10-19T07:55:05.501Z,15.65
2022-10-19T07:57:34.967Z,13.85
2022-10-19T08:00:03.666Z,13.25
2022-10-19T08:02:39.673Z,14.73
2022-10-19T08:05:21.891Z,13.85
2022-10-19T08:07:50.147Z,13.45
2022-10-19T08:10:18.537Z,12.05
2022-10-19T08:12:46.772Z,10.32
2022-10-19T08:15:15.183Z,9.23
2022-10-19T08:17:43.748Z,9.57
2022-10-19T08:20:12.288Z,9.45
2022-10-19T08:22:45.124Z,9.73
2022-10-19T08:25:13.832Z,10.93
2022-10-19T08:27:42.035Z,9.80
2022-10-19T08:30:11.246Z,8.27
2022-10-19T08:32:39.791Z,8.80
2022-10-19T08:35:10.798Z,6.85
2022-10-19T08:37:44.837Z,7.30
2022-10-19T08:40:22.294Z,5.95
2022-10-19T08:42:58.754Z,7.10
2022-10-19T08:48:36.685Z,6.10
2022-10-19T08:51:09.234Z,6.30
2022-10-19T08:53:47.231Z,7.15
2022-10-19T08:56:50.976Z,6.30
2022-10-19T08:59:32.606Z,6.45
2022-10-19T09:02:09.287Z,6.10
2022-10-19T09:04:50.261Z,6.10
2022-10-19T09:07:28.152Z,6.13
2022-10-19T09:10:01.233Z,6.85
2022-10-19T09:12:46.766Z,6.57
2022-10-19T09:15:19.648Z,6.13
2022-10-19T09:17:48.090Z,7.22
2022-10-19T09:20:40.822Z,6.20
2022-10-19T09:23:28.736Z,7.03
2022-10-19T09:25:58.671Z,6.28
2022-10-19T09:28:46.000Z,6.78
2022-10-19T09:31:22.181Z,6.25
2022-10-19T09:33:56.884Z,6.70
2022-10-19T09:36:50.155Z,6.25
2022-10-19T09:39:20.051Z,6.90
2022-10-19T09:41:52.767Z,5.90
2022-10-19T09:44:36.145Z,6.28
2022-10-19T09:47:29.667Z,6.05
2022-10-19T09:50:10.229Z,6.50
2022-10-19T09:52:41.045Z,9.15
2022-10-19T09:55:30.512Z,6.35
2022-10-19T09:58:20.464Z,6.88
2022-10-19T10:00:54.415Z,5.70
2022-10-19T10:03:29.991Z,5.97
2022-10-19T10:06:19.042Z,6.50
2022-10-19T10:08:51.084Z,5.95
2022-10-19T10:11:26.815Z,5.75
2022-10-19T10:13:57.135Z,5.53
2022-10-19T10:16:33.062Z,6.00
2022-10-19T10:19:06.935Z,5.55
2022-10-19T10:21:47.684Z,6.15
2022-10-19T10:24:20.396Z,5.63
2022-10-19T10:26:51.618Z,5.60
2022-10-19T10:29:33.099Z,5.90
2022-10-19T10:32:07.490Z,5.68
2022-10-19T10:34:49.828Z,6.05
2022-10-19T10:37:24.864Z,5.63
2022-10-19T10:40:02.013Z,5.53
2022-10-19T10:42:38.315Z,5.25
2022-10-19T10:45:22.235Z,5.10
2022-10-19T10:48:15.277Z,5.47
2022-10-19T10:50:44.229Z,4.82
2022-10-19T10:53:38.154Z,4.95
2022-10-19T10:56:21.212Z,4.68
2022-10-19T10:58:57.308Z,5.00
2022-10-19T11:01:32.119Z,4.32
2022-10-19T11:04:08.809Z,5.10
2022-10-19T11:06:47.047Z,4.70
2022-10-19T11:09:32.446Z,4.97
2022-10-19T11:12:04.916Z,4.43
2022-10-19T11:14:42.320Z,4.80
2022-10-19T11:17:21.917Z,4.25
2022-10-19T11:19:51.713Z,4.47
2022-10-19T11:22:29.405Z,4.60
2022-10-19T11:25:33.097Z,4.63
2022-10-19T11:28:20.856Z,4.65
2022-10-19T11:30:58.778Z,6.50
2022-10-19T11:33:48.950Z,4.80
2022-10-19T11:36:33.864Z,4.78
2022-10-19T11:39:39.391Z,4.15
2022-10-19T11:42:24.510Z,4.78
2022-10-19T11:45:07.433Z,4.70
2022-10-19T11:47:55.210Z,4.57
2022-10-19T11:50:35.087Z,4.72
2022-10-19T11:53:13.260Z,4.13
2022-10-19T11:55:48.173Z,4.68
2022-10-19T11:58:35.379Z,4.30
2022-10-19T12:01:24.609Z,4.07
2022-10-19T12:04:29.641Z,3.83
2022-10-19T12:07:15.770Z,4.45
2022-10-19T12:09:55.519Z,3.83
2022-10-19T12:12:32.432Z,4.05
2022-10-19T12:15:23.635Z,4.47
2022-10-19T12:18:01.800Z,4.15
2022-10-19T12:20:43.035Z,4.30
2022-10-19T12:23:24.582Z,4.43
2022-10-19T12:25:56.222Z,4.07
2022-10-19T12:28:29.837Z,4.85
2022-10-19T12:31:00.232Z,4.20
2022-10-19T12:33:41.040Z,4.43
2022-10-19T12:36:28.080Z,3.85
2022-10-19T12:39:09.005Z,3.75
2022-10-19T12:41:52.410Z,3.95
2022-10-19T12:44:41.132Z,4.20
2022-10-19T12:47:13.706Z,4.15
2022-10-19T12:49:48.808Z,4.85
2022-10-19T12:52:37.892Z,4.15
2022-10-19T12:55:25.763Z,4.68
2022-10-19T12:58:17.426Z,5.25
2022-10-19T13:00:59.664Z,4.40
2022-10-19T13:07:36.287Z,4.20
2022-10-19T13:10:09.631Z,4.55
2022-10-19T13:12:47.113Z,4.82
2022-10-19T13:15:52.027Z,4.03
2022-10-19T13:19:03.377Z,5.10
2022-10-19T13:21:53.631Z,4.35
2022-10-19T13:24:35.726Z,5.43
2022-10-19T13:27:40.320Z,5.22
2022-10-19T13:31:06.273Z,4.53
2022-10-19T13:33:54.220Z,4.80
2022-10-19T13:36:24.220Z,5.20
2022-10-19T13:39:13.871Z,5.22
2022-10-19T13:41:57.380Z,4.22
2022-10-19T13:44:35.403Z,4.65
2022-10-19T13:50:39.787Z,5.63
2022-10-19T13:53:39.266Z,4.05
2022-10-19T13:56:25.669Z,4.38
2022-10-19T13:59:44.803Z,4.72
2022-10-19T14:03:02.185Z,4.13
2022-10-19T14:06:15.558Z,3.42
2022-10-19T14:09:28.422Z,4.18
2022-10-19T14:12:07.007Z,4.18
2022-10-19T14:17:19.628Z,4.75
2022-10-19T14:20:26.978Z,4.10
2022-10-19T14:22:59.380Z,4.65
2022-10-19T14:25:29.420Z,3.85
2022-10-19T14:28:01.986Z,3.67
2022-10-19T14:30:33.599Z,3.80
2022-10-19T14:33:08.157Z,4.22
2022-10-19T14:35:41.672Z,4.00
2022-10-19T14:38:17.673Z,3.85
2022-10-19T14:40:47.871Z,4.30
2022-10-19T14:43:23.648Z,3.72
2022-10-19T14:46:12.212Z,3.55
2022-10-19T14:48:45.314Z,4.13
2022-10-19T14:51:30.737Z,4.30
2022-10-19T14:54:05.086Z,4.00
2022-10-19T14:56:38.289Z,3.63
2022-10-19T14:59:20.507Z,3.67
2022-10-19T15:01:51.727Z,4.10
2022-10-19T15:04:22.835Z,3.72
2022-10-19T15:06:52.937Z,3.75
2022-10-19T15:09:36.956Z,3.58
2022-10-19T15:12:18.811Z,3.80
2022-10-19T15:14:48.525Z,3.70
2022-10-19T15:17:30.240Z,4.22
2022-10-19T15:20:01.358Z,4.18
2022-10-19T15:22:41.884Z,4.03
2022-10-19T15:25:32.690Z,4.00
2022-10-19T15:28:21.661Z,4.00
2022-10-19T15:31:00.725Z,3.80
2022-10-19T15:33:29.689Z,3.55
2022-10-19T15:36:17.151Z,4.20
2022-10-19T15:38:49.191Z,3.53
2022-10-19T15:41:30.456Z,3.30
2022-10-19T15:44:33.767Z,3.45
2022-10-19T15:47:23.136Z,3.65
2022-10-19T15:50:02.419Z,3.92
2022-10-19T15:52:34.100Z,4.13
2022-10-19T15:55:03.839Z,3.17
2022-10-19T15:58:00.108Z,3.60
2022-10-19T16:00:35.430Z,3.30
2022-10-19T16:03:03.865Z,3.63
2022-10-19T16:05:59.304Z,4.00
2022-10-19T16:08:30.817Z,3.60
2022-10-19T16:11:15.049Z,4.28
2022-10-19T16:13:45.647Z,4.20
2022-10-19T16:16:24.637Z,3.80
2022-10-19T16:19:05.200Z,4.32
2022-10-19T16:21:49.295Z,4.30
2022-10-19T16:24:24.301Z,4.22
2022-10-19T16:27:03.253Z,4.47
2022-10-19T16:29:31.751Z,6.25
2022-10-19T16:32:10.447Z,4.93
2022-10-19T16:34:39.952Z,4.43
2022-10-19T16:37:13.420Z,5.03
2022-10-19T16:39:43.823Z,4.95
2022-10-19T16:42:25.596Z,4.95
2022-10-19T16:44:58.452Z,4.80
2022-10-19T16:47:27.858Z,4.78
2022-10-19T16:50:00.870Z,4.63
2022-10-19T16:52:33.149Z,5.10
2022-10-19T16:55:02.766Z,4.68
2022-10-19T16:57:53.382Z,5.30
2022-10-19T17:00:26.536Z,4.32
2022-10-19T17:02:55.081Z,6.28
2022-10-19T17:05:24.388Z,8.68
2022-10-19T17:07:53.607Z,5.32
2022-10-19T17:10:21.931Z,10.45
2022-10-19T17:12:51.578Z,5.95
2022-10-19T17:18:08.790Z,4.80
2022-10-19T17:20:37.089Z,4.50
2022-10-19T17:23:05.565Z,4.57
2022-10-19T17:25:33.851Z,4.38
2022-10-19T17:28:09.304Z,4.00
2022-10-19T17:30:42.397Z,4.10
2022-10-19T17:33:17.601Z,4.90
2022-10-19T17:36:16.472Z,4.13
2022-10-19T17:38:46.399Z,3.85
2022-10-19T17:41:20.628Z,4.07
2022-10-19T17:43:53.983Z,4.70
2022-10-19T17:46:25.847Z,6.05
2022-10-19T17:48:54.944Z,4.15
2022-10-19T17:51:27.044Z,5.00
2022-10-19T17:53:58.811Z,3.95
2022-10-19T17:56:28.963Z,4.68
2022-10-19T17:58:59.732Z,4.20
2022-10-19T18:01:28.524Z,6.13
2022-10-19T18:03:57.421Z,5.68
2022-10-19T18:06:31.489Z,4.53
2022-10-19T18:09:13.518Z,5.00
2022-10-19T18:11:45.929Z,5.60
2022-10-19T18:14:16.502Z,5.40
2022-10-19T18:16:47.428Z,5.30
2022-10-19T18:19:17.708Z,5.95
2022-10-19T18:21:49.104Z,5.78
2022-10-19T18:24:21.349Z,5.40
2022-10-19T18:26:51.067Z,5.35
2022-10-19T18:29:25.136Z,4.70
2022-10-19T18:31:55.010Z,6.07
2022-10-19T18:34:25.713Z,5.50
2022-10-19T18:36:54.969Z,5.78
2022-10-19T18:39:24.488Z,5.65
2022-10-19T18:41:55.753Z,5.88
2022-10-19T18:44:27.871Z,6.50
2022-10-19T18:46:57.704Z,6.50
2022-10-19T18:49:29.843Z,6.55
2022-10-19T18:51:58.447Z,6.40
2022-10-19T18:54:27.975Z,7.00
2022-10-19T18:57:04.363Z,11.02
2022-10-19T18:59:34.206Z,13.35
2022-10-19T19:02:02.502Z,10.18
2022-10-19T19:04:30.827Z,14.30
2022-10-19T19:06:59.255Z,15.10
2022-10-19T19:09:27.662Z,12.40
2022-10-19T19:11:58.341Z,7.95
2022-10-19T19:14:26.709Z,7.05
2022-10-19T19:16:56.386Z,7.57
2022-10-19T19:19:27.604Z,6.93
2022-10-19T19:21:56.045Z,6.18
2022-10-19T19:24:29.578Z,6.35
2022-10-19T19:27:02.914Z,5.97
2022-10-19T19:29:31.492Z,6.05
2022-10-19T19:32:05.449Z,6.32
2022-10-19T19:34:33.789Z,6.50
2022-10-19T19:37:07.342Z,5.90
2022-10-19T19:39:40.050Z,5.85
2022-10-19T19:42:09.925Z,12.20
2022-10-19T19:44:38.190Z,5.63
2022-10-19T19:47:08.679Z,5.80
2022-10-19T19:49:38.396Z,5.07
2022-10-19T19:52:07.681Z,5.95
2022-10-19T19:54:35.897Z,5.35
2022-10-19T19:57:04.585Z,5.35
2022-10-19T19:59:32.921Z,5.55
2022-10-19T20:02:01.467Z,6.43
2022-10-19T20:04:31.197Z,7.00
2022-10-19T20:06:59.460Z,8.38
2022-10-19T20:09:29.828Z,7.63
2022-10-19T20:11:58.007Z,5.78
2022-10-19T20:14:26.816Z,4.82
2022-10-19T20:16:55.062Z,6.15
2022-10-19T20:19:24.348Z,5.45
2022-10-19T20:21:58.629Z,5.05
2022-10-19T20:24:26.940Z,6.20
2022-10-19T20:26:55.859Z,6.43
2022-10-19T20:29:25.315Z,5.57
2022-10-19T20:31:55.848Z,5.47
2022-10-19T20:34:30.164Z,6.28
2022-10-19T20:37:01.973Z,5.90
2022-10-19T20:39:30.507Z,6.30
2022-10-19T20:42:00.280Z,6.30
2022-10-19T20:44:29.605Z,5.90
2022-10-19T20:47:07.932Z,5.55
2022-10-19T20:49:43.075Z,5.63
2022-10-19T20:52:14.729Z,5.93
2022-10-19T20:54:45.880Z,5.68
2022-10-19T20:57:20.237Z,5.32
2022-10-19T20:59:49.940Z,6.38
2022-10-19T21:02:19.276Z,6.15
2022-10-19T21:04:48.639Z,9.10
2022-10-19T21:07:18.724Z,15.65
2022-10-19T21:09:48.024Z,14.63
2022-10-19T21:12:27.752Z,8.18
2022-10-19T21:14:56.996Z,11.52
2022-10-19T21:20:13.320Z,9.13
2022-10-19T21:23:01.223Z,12.02
2022-10-19T21:25:31.884Z,15.20
2022-10-19T21:28:00.098Z,30.60
2022-10-19T21:30:28.340Z,10.55
2022-10-19T21:32:58.371Z,6.85
2022-10-19T21:35:26.687Z,6.88
2022-10-19T21:38:02.588Z,6.25
2022-10-19T21:40:32.192Z,5.47
2022-10-19T21:43:07.448Z,7.72
2022-10-19T21:45:40.960Z,7.68
2022-10-19T21:48:09.267Z,9.60
2022-10-19T21:50:38.232Z,7.25
2022-10-19T21:53:20.403Z,7.50
2022-10-19T21:55:49.012Z,9.85
2022-10-19T21:58:29.498Z,8.40
2022-10-19T22:01:09.443Z,6.97
2022-10-19T22:03:39.700Z,7.68
2022-10-19T22:06:08.607Z,7.68
2022-10-19T22:08:40.939Z,7.78
2022-10-19T22:11:12.152Z,7.53
2022-10-19T22:13:49.614Z,7.45
2022-10-19T22:16:21.674Z,7.63
2022-10-19T22:18:51.121Z,7.55
2022-10-19T22:21:27.045Z,7.80
2022-10-19T22:24:00.597Z,9.52
2022-10-19T22:26:34.962Z,12.27
2022-10-19T22:29:15.893Z,23.38
2022-10-19T22:31:44.714Z,7.60
2022-10-19T22:34:16.677Z,7.53
2022-10-19T22:36:45.706Z,7.60
2022-10-19T22:39:23.205Z,7.80
2022-10-19T22:41:53.895Z,8.15
2022-10-19T22:44:22.092Z,7.10
2022-10-19T22:46:56.348Z,7.38
2022-10-19T22:49:24.706Z,7.03
2022-10-19T22:51:53.917Z,7.25
2022-10-19T22:54:23.993Z,7.95
2022-10-19T22:56:53.506Z,7.55
2022-10-19T22:59:21.707Z,8.18
2022-10-19T23:01:50.100Z,8.50
2022-10-19T23:04:20.084Z,8.43
2022-10-19T23:06:48.616Z,7.90
2022-10-19T23:09:17.413Z,8.50
2022-10-19T23:11:49.430Z,8.20
2022-10-19T23:14:17.944Z,7.85
2022-10-19T23:16:46.259Z,7.90
2022-10-19T23:19:17.788Z,7.63
2022-10-19T23:21:55.048Z,7.50
2022-10-19T23:24:35.393Z,7.10
2022-10-19T23:27:06.056Z,7.53
2022-10-19T23:29:38.946Z,8.00
2022-10-19T23:32:07.620Z,7.05
2022-10-19T23:34:36.837Z,7.63
2022-10-19T23:37:05.173Z,8.50
2022-10-19T23:39:39.204Z,7.88
2022-10-19T23:42:16.873Z,7.72
2022-10-19T23:44:49.659Z,7.35
2022-10-19T23:47:18.920Z,8.07
2022-10-19T23:49:47.416Z,6.95
2022-10-19T23:52:15.658Z,8.57
2022-10-19T23:54:43.863Z,7.63
2022-10-19T23:57:12.183Z,8.05
2022-10-19T23:59:49.630Z,7.13
